sensor_id;sensor_type;location;lat;lon;timestamp;pressure;altitude;pressure_sealevel;temperature;humidity
28027;BME280;15344;52.342;-1.290;2023-01-30T00:00:49;100614.18;;;8.99;100.00
28027;BME280;15344;52.342;-1.290;2023-01-30T00:03:12;100614.90;;;9.15;100.00
28027;BME280;15344;52.342;-1.290;2023-01-30T00:05:38;100612.32;;;9.09;100.00
28027;BME280;15344;52.342;-1.290;2023-01-30T00:08:03;100604.53;;;9.22;100.00
28027;BME280;15344;52.342;-1.290;2023-01-30T00:10:28;100608.98;;;9.02;100.00
28027;BME280;15344;52.342;-1.290;2023-01-30T00:12:54;100607.42;;;8.56;100.00
28027;BME280;15344;52.342;-1.290;2023-01-30T00:15:19;100613.39;;;8.25;100.00
28027;BME280;15344;52.342;-1.290;2023-01-30T00:17:45;100611.08;;;8.97;100.00
28027;BME280;15344;52.342;-1.290;2023-01-30T00:20:11;100608.27;;;9.45;100.00
28027;BME280;15344;52.342;-1.290;2023-01-30T00:22:36;100616.63;;;9.23;100.00
28027;BME280;15344;52.342;-1.290;2023-01-30T00:25:01;100614.20;;;9.02;100.00
28027;BME280;15344;52.342;-1.290;2023-01-30T00:27:27;100611.43;;;8.95;100.00
28027;BME280;15344;52.342;-1.290;2023-01-30T00:29:52;100612.64;;;8.94;100.00
28027;BME280;15344;52.342;-1.290;2023-01-30T00:32:17;100610.52;;;10.06;100.00
28027;BME280;15344;52.342;-1.290;2023-01-30T00:34:43;100605.43;;;10.04;100.00
28027;BME280;15344;52.342;-1.290;2023-01-30T00:37:08;100606.05;;;9.57;100.00
28027;BME280;15344;52.342;-1.290;2023-01-30T00:39:34;100621.60;;;10.47;100.00
28027;BME280;15344;52.342;-1.290;2023-01-30T00:41:59;100622.06;;;10.32;100.00
28027;BME280;15344;52.342;-1.290;2023-01-30T00:44:25;100617.24;;;10.01;100.00
28027;BME280;15344;52.342;-1.290;2023-01-30T00:46:50;100617.10;;;9.21;100.00
28027;BME280;15344;52.342;-1.290;2023-01-30T00:49:15;100612.77;;;9.55;100.00
28027;BME280;15344;52.342;-1.290;2023-01-30T00:51:41;100615.48;;;9.97;100.00
28027;BME280;15344;52.342;-1.290;2023-01-30T00:54:06;100607.53;;;9.75;100.00
28027;BME280;15344;52.342;-1.290;2023-01-30T00:56:32;100600.01;;;9.87;100.00
28027;BME280;15344;52.342;-1.290;2023-01-30T00:58:57;100597.56;;;10.32;100.00
28027;BME280;15344;52.342;-1.290;2023-01-30T01:01:22;100595.48;;;9.86;100.00
28027;BME280;15344;52.342;-1.290;2023-01-30T01:03:48;100594.51;;;10.44;100.00
28027;BME280;15344;52.342;-1.290;2023-01-30T01:06:14;100598.90;;;10.59;100.00
28027;BME280;15344;52.342;-1.290;2023-01-30T01:08:39;100597.30;;;10.91;100.00
28027;BME280;15344;52.342;-1.290;2023-01-30T01:11:05;100606.68;;;10.78;100.00
28027;BME280;15344;52.342;-1.290;2023-01-30T01:13:30;100607.20;;;10.05;100.00
28027;BME280;15344;52.342;-1.290;2023-01-30T01:15:55;100615.30;;;10.57;100.00
28027;BME280;15344;52.342;-1.290;2023-01-30T01:18:20;100642.99;;;9.98;100.00
28027;BME280;15344;52.342;-1.290;2023-01-30T01:20:46;100650.64;;;10.27;100.00
28027;BME280;15344;52.342;-1.290;2023-01-30T01:23:11;100632.84;;;10.69;100.00
28027;BME280;15344;52.342;-1.290;2023-01-30T01:25:36;100629.91;;;10.59;100.00
28027;BME280;15344;52.342;-1.290;2023-01-30T01:28:02;100633.10;;;10.93;100.00
28027;BME280;15344;52.342;-1.290;2023-01-30T01:30:27;100638.94;;;11.40;100.00
28027;BME280;15344;52.342;-1.290;2023-01-30T01:32:53;100642.14;;;11.16;100.00
28027;BME280;15344;52.342;-1.290;2023-01-30T01:35:18;100646.90;;;11.27;100.00
28027;BME280;15344;52.342;-1.290;2023-01-30T01:37:44;100650.36;;;11.43;100.00
28027;BME280;15344;52.342;-1.290;2023-01-30T01:40:16;100653.29;;;11.74;100.00
28027;BME280;15344;52.342;-1.290;2023-01-30T01:42:37;100650.98;;;10.97;100.00
28027;BME280;15344;52.342;-1.290;2023-01-30T01:45:08;100655.94;;;10.46;100.00
28027;BME280;15344;52.342;-1.290;2023-01-30T01:47:25;100662.27;;;11.94;100.00
28027;BME280;15344;52.342;-1.290;2023-01-30T01:49:51;100656.01;;;11.64;100.00
28027;BME280;15344;52.342;-1.290;2023-01-30T01:52:16;100649.69;;;12.84;100.00
28027;BME280;15344;52.342;-1.290;2023-01-30T01:54:44;100656.49;;;12.28;100.00
28027;BME280;15344;52.342;-1.290;2023-01-30T01:57:11;100652.16;;;11.95;100.00
28027;BME280;15344;52.342;-1.290;2023-01-30T01:59:35;100650.38;;;11.52;100.00
28027;BME280;15344;52.342;-1.290;2023-01-30T02:02:02;100648.56;;;12.51;100.00
28027;BME280;15344;52.342;-1.290;2023-01-30T02:04:25;100649.04;;;12.33;100.00
28027;BME280;15344;52.342;-1.290;2023-01-30T02:06:48;100655.63;;;12.43;99.28
28027;BME280;15344;52.342;-1.290;2023-01-30T02:09:13;100666.46;;;10.98;100.00
28027;BME280;15344;52.342;-1.290;2023-01-30T02:11:43;100669.67;;;11.37;100.00
28027;BME280;15344;52.342;-1.290;2023-01-30T02:14:06;100673.06;;;10.61;100.00
28027;BME280;15344;52.342;-1.290;2023-01-30T02:16:29;100678.05;;;9.67;100.00
28027;BME280;15344;52.342;-1.290;2023-01-30T02:18:55;100681.01;;;10.24;100.00
28027;BME280;15344;52.342;-1.290;2023-01-30T02:31:15;100692.35;;;10.82;100.00
28027;BME280;15344;52.342;-1.290;2023-01-30T02:33:34;100698.60;;;10.85;100.00
28027;BME280;15344;52.342;-1.290;2023-01-30T02:35:59;100705.44;;;8.65;100.00
28027;BME280;15344;52.342;-1.290;2023-01-30T02:38:26;100708.92;;;10.18;100.00
28027;BME280;15344;52.342;-1.290;2023-01-30T02:40:51;100715.28;;;9.31;100.00
28027;BME280;15344;52.342;-1.290;2023-01-30T02:43:15;100711.43;;;8.86;100.00
28027;BME280;15344;52.342;-1.290;2023-01-30T02:45:41;100719.08;;;8.99;100.00
28027;BME280;15344;52.342;-1.290;2023-01-30T02:48:02;100731.97;;;7.83;100.00
28027;BME280;15344;52.342;-1.290;2023-01-30T02:50:28;100739.52;;;8.56;100.00
28027;BME280;15344;52.342;-1.290;2023-01-30T02:52:51;100738.56;;;7.82;100.00
28027;BME280;15344;52.342;-1.290;2023-01-30T02:55:19;100748.09;;;7.80;100.00
28027;BME280;15344;52.342;-1.290;2023-01-30T02:57:41;100741.42;;;7.59;100.00
28027;BME280;15344;52.342;-1.290;2023-01-30T03:00:08;100736.32;;;7.34;100.00
28027;BME280;15344;52.342;-1.290;2023-01-30T03:02:46;100736.33;;;8.52;100.00
28027;BME280;15344;52.342;-1.290;2023-01-30T03:05:14;100721.89;;;9.72;92.71
28027;BME280;15344;52.342;-1.290;2023-01-30T03:07:35;100724.22;;;9.93;89.69
28027;BME280;15344;52.342;-1.290;2023-01-30T03:09:57;100728.17;;;8.92;93.23
28027;BME280;15344;52.342;-1.290;2023-01-30T03:12:17;100722.11;;;8.18;94.82
28027;BME280;15344;52.342;-1.290;2023-01-30T03:14:44;100722.91;;;8.38;92.96
28027;BME280;15344;52.342;-1.290;2023-01-30T03:17:05;100720.79;;;8.64;94.43
28027;BME280;15344;52.342;-1.290;2023-01-30T03:19:30;100715.54;;;9.00;90.46
28027;BME280;15344;52.342;-1.290;2023-01-30T03:21:55;100713.57;;;9.37;91.37
28027;BME280;15344;52.342;-1.290;2023-01-30T03:24:21;100722.16;;;8.93;88.34
28027;BME280;15344;52.342;-1.290;2023-01-30T03:26:53;100736.47;;;7.65;91.78
28027;BME280;15344;52.342;-1.290;2023-01-30T03:29:12;100730.90;;;8.76;90.42
28027;BME280;15344;52.342;-1.290;2023-01-30T03:31:38;100743.58;;;7.40;96.63
28027;BME280;15344;52.342;-1.290;2023-01-30T03:34:03;100751.66;;;8.56;91.76
28027;BME280;15344;52.342;-1.290;2023-01-30T03:36:29;100757.20;;;8.90;90.00
28027;BME280;15344;52.342;-1.290;2023-01-30T03:38:54;100760.55;;;8.51;90.64
28027;BME280;15344;52.342;-1.290;2023-01-30T03:41:19;100752.93;;;7.91;94.73
28027;BME280;15344;52.342;-1.290;2023-01-30T03:43:45;100758.92;;;9.06;88.88
28027;BME280;15344;52.342;-1.290;2023-01-30T03:46:10;100765.05;;;8.70;88.95
28027;BME280;15344;52.342;-1.290;2023-01-30T03:48:35;100759.43;;;9.21;85.09
28027;BME280;15344;52.342;-1.290;2023-01-30T03:51:01;100769.37;;;9.75;81.54
28027;BME280;15344;52.342;-1.290;2023-01-30T03:53:26;100773.59;;;9.59;81.73
28027;BME280;15344;52.342;-1.290;2023-01-30T03:55:52;100781.60;;;9.16;80.96
28027;BME280;15344;52.342;-1.290;2023-01-30T03:58:17;100777.70;;;9.71;79.40
28027;BME280;15344;52.342;-1.290;2023-01-30T04:00:42;100784.69;;;8.71;80.31
28027;BME280;15344;52.342;-1.290;2023-01-30T04:03:08;100788.26;;;9.04;79.25
28027;BME280;15344;52.342;-1.290;2023-01-30T04:05:33;100791.36;;;8.96;78.87
28027;BME280;15344;52.342;-1.290;2023-01-30T04:07:59;100794.31;;;8.44;78.83
28027;BME280;15344;52.342;-1.290;2023-01-30T04:10:25;100793.27;;;8.80;77.05
28027;BME280;15344;52.342;-1.290;2023-01-30T04:12:50;100792.12;;;7.54;82.92
28027;BME280;15344;52.342;-1.290;2023-01-30T04:15:15;100785.91;;;8.09;78.74
28027;BME280;15344;52.342;-1.290;2023-01-30T04:17:42;100789.41;;;7.45;78.70
28027;BME280;15344;52.342;-1.290;2023-01-30T04:20:07;100795.17;;;8.62;77.16
28027;BME280;15344;52.342;-1.290;2023-01-30T04:22:32;100805.31;;;9.00;74.37
28027;BME280;15344;52.342;-1.290;2023-01-30T04:24:57;100806.89;;;8.94;73.35
28027;BME280;15344;52.342;-1.290;2023-01-30T04:27:23;100805.44;;;9.03;72.09
28027;BME280;15344;52.342;-1.290;2023-01-30T04:29:48;100803.86;;;8.49;74.81
28027;BME280;15344;52.342;-1.290;2023-01-30T04:32:13;100811.70;;;8.59;73.17
28027;BME280;15344;52.342;-1.290;2023-01-30T04:34:39;100813.15;;;8.81;71.13
28027;BME280;15344;52.342;-1.290;2023-01-30T04:37:05;100814.34;;;8.89;71.59
28027;BME280;15344;52.342;-1.290;2023-01-30T04:39:30;100816.65;;;8.82;71.37
28027;BME280;15344;52.342;-1.290;2023-01-30T04:41:55;100818.83;;;8.70;70.84
28027;BME280;15344;52.342;-1.290;2023-01-30T04:44:21;100818.67;;;8.42;71.53
28027;BME280;15344;52.342;-1.290;2023-01-30T04:46:46;100818.36;;;8.15;72.47
28027;BME280;15344;52.342;-1.290;2023-01-30T04:49:12;100820.07;;;8.66;70.86
28027;BME280;15344;52.342;-1.290;2023-01-30T04:51:37;100823.53;;;8.49;72.77
28027;BME280;15344;52.342;-1.290;2023-01-30T04:54:03;100830.93;;;9.08;70.92
28027;BME280;15344;52.342;-1.290;2023-01-30T04:56:28;100832.07;;;8.72;71.38
28027;BME280;15344;52.342;-1.290;2023-01-30T04:58:53;100833.70;;;8.92;69.97
28027;BME280;15344;52.342;-1.290;2023-01-30T05:01:22;100835.72;;;8.01;73.23
28027;BME280;15344;52.342;-1.290;2023-01-30T05:03:47;100837.81;;;9.54;69.58
28027;BME280;15344;52.342;-1.290;2023-01-30T05:06:10;100847.94;;;8.56;71.04
28027;BME280;15344;52.342;-1.290;2023-01-30T05:08:35;100847.56;;;9.27;70.95
28027;BME280;15344;52.342;-1.290;2023-01-30T05:11:01;100844.02;;;8.10;71.25
28027;BME280;15344;52.342;-1.290;2023-01-30T05:13:26;100840.42;;;9.24;69.30
28027;BME280;15344;52.342;-1.290;2023-01-30T05:15:51;100833.93;;;8.48;71.96
28027;BME280;15344;52.342;-1.290;2023-01-30T05:18:17;100827.96;;;8.18;74.72
28027;BME280;15344;52.342;-1.290;2023-01-30T05:20:42;100828.74;;;8.05;74.84
28027;BME280;15344;52.342;-1.290;2023-01-30T05:23:08;100835.55;;;7.41;75.49
28027;BME280;15344;52.342;-1.290;2023-01-30T05:25:33;100835.84;;;8.52;73.66
28027;BME280;15344;52.342;-1.290;2023-01-30T05:27:59;100831.16;;;8.71;71.68
28027;BME280;15344;52.342;-1.290;2023-01-30T05:30:24;100828.54;;;8.37;72.15
28027;BME280;15344;52.342;-1.290;2023-01-30T05:32:50;100833.39;;;7.74;74.01
28027;BME280;15344;52.342;-1.290;2023-01-30T05:35:16;100835.84;;;8.37;72.45
28027;BME280;15344;52.342;-1.290;2023-01-30T05:37:41;100836.31;;;7.88;72.45
28027;BME280;15344;52.342;-1.290;2023-01-30T05:40:08;100843.88;;;8.55;71.65
28027;BME280;15344;52.342;-1.290;2023-01-30T05:42:32;100846.53;;;8.61;70.97
28027;BME280;15344;52.342;-1.290;2023-01-30T05:44:58;100848.06;;;9.00;70.56
28027;BME280;15344;52.342;-1.290;2023-01-30T05:47:23;100844.32;;;9.26;68.38
28027;BME280;15344;52.342;-1.290;2023-01-30T05:49:49;100853.40;;;8.73;70.64
28027;BME280;15344;52.342;-1.290;2023-01-30T05:52:14;100862.76;;;9.43;68.60
28027;BME280;15344;52.342;-1.290;2023-01-30T05:54:39;100866.45;;;8.98;70.67
28027;BME280;15344;52.342;-1.290;2023-01-30T05:57:05;100870.31;;;9.32;69.78
28027;BME280;15344;52.342;-1.290;2023-01-30T05:59:30;100870.32;;;9.24;69.32
28027;BME280;15344;52.342;-1.290;2023-01-30T06:01:56;100868.32;;;9.27;68.81
28027;BME280;15344;52.342;-1.290;2023-01-30T06:04:21;100868.88;;;9.24;68.96
28027;BME280;15344;52.342;-1.290;2023-01-30T06:06:48;100869.83;;;8.60;71.30
28027;BME280;15344;52.342;-1.290;2023-01-30T06:09:12;100874.68;;;9.79;68.64
28027;BME280;15344;52.342;-1.290;2023-01-30T06:11:37;100878.84;;;9.12;68.97
28027;BME280;15344;52.342;-1.290;2023-01-30T06:14:03;100887.22;;;9.32;68.91
28027;BME280;15344;52.342;-1.290;2023-01-30T06:16:28;100885.09;;;9.33;68.74
28027;BME280;15344;52.342;-1.290;2023-01-30T06:18:54;100884.94;;;8.65;70.90
28027;BME280;15344;52.342;-1.290;2023-01-30T06:21:19;100891.36;;;9.46;70.61
28027;BME280;15344;52.342;-1.290;2023-01-30T06:23:45;100883.02;;;8.29;73.20
28027;BME280;15344;52.342;-1.290;2023-01-30T06:26:10;100885.51;;;8.67;72.45
28027;BME280;15344;52.342;-1.290;2023-01-30T06:28:36;100882.98;;;9.13;69.98
28027;BME280;15344;52.342;-1.290;2023-01-30T06:31:01;100882.18;;;9.43;70.89
28027;BME280;15344;52.342;-1.290;2023-01-30T06:33:26;100881.15;;;9.32;71.55
28027;BME280;15344;52.342;-1.290;2023-01-30T06:35:52;100886.50;;;9.55;70.00
28027;BME280;15344;52.342;-1.290;2023-01-30T06:38:18;100889.47;;;7.62;73.93
28027;BME280;15344;52.342;-1.290;2023-01-30T06:40:45;100889.93;;;8.77;73.00
28027;BME280;15344;52.342;-1.290;2023-01-30T06:43:09;100902.59;;;7.35;77.59
28027;BME280;15344;52.342;-1.290;2023-01-30T06:45:34;100906.79;;;8.23;75.32
28027;BME280;15344;52.342;-1.290;2023-01-30T06:47:59;100907.58;;;8.98;74.41
28027;BME280;15344;52.342;-1.290;2023-01-30T06:50:26;100910.86;;;8.29;75.15
28027;BME280;15344;52.342;-1.290;2023-01-30T06:52:51;100917.81;;;8.71;75.40
28027;BME280;15344;52.342;-1.290;2023-01-30T06:55:18;100922.64;;;8.36;78.70
28027;BME280;15344;52.342;-1.290;2023-01-30T06:57:42;100937.98;;;8.90;74.54
28027;BME280;15344;52.342;-1.290;2023-01-30T07:00:10;100941.69;;;8.41;75.70
28027;BME280;15344;52.342;-1.290;2023-01-30T07:02:32;100955.56;;;7.50;78.65
28027;BME280;15344;52.342;-1.290;2023-01-30T07:04:57;100951.77;;;8.33;76.96
28027;BME280;15344;52.342;-1.290;2023-01-30T07:07:23;100959.20;;;8.35;76.19
28027;BME280;15344;52.342;-1.290;2023-01-30T07:09:48;100959.44;;;8.42;76.91
28027;BME280;15344;52.342;-1.290;2023-01-30T07:12:14;100956.38;;;7.67;79.77
28027;BME280;15344;52.342;-1.290;2023-01-30T07:14:39;100948.71;;;8.53;78.07
28027;BME280;15344;52.342;-1.290;2023-01-30T07:17:05;100943.75;;;7.83;78.80
28027;BME280;15344;52.342;-1.290;2023-01-30T07:19:30;100940.19;;;8.29;78.64
28027;BME280;15344;52.342;-1.290;2023-01-30T07:21:56;100943.63;;;8.16;77.87
28027;BME280;15344;52.342;-1.290;2023-01-30T07:24:21;100944.10;;;7.89;78.87
28027;BME280;15344;52.342;-1.290;2023-01-30T07:26:48;100940.11;;;8.68;76.57
28027;BME280;15344;52.342;-1.290;2023-01-30T07:29:12;100937.60;;;8.13;77.23
28027;BME280;15344;52.342;-1.290;2023-01-30T07:31:38;100938.07;;;7.43;80.30
28027;BME280;15344;52.342;-1.290;2023-01-30T07:34:03;100931.38;;;8.12;80.40
28027;BME280;15344;52.342;-1.290;2023-01-30T07:36:29;100928.55;;;7.75;79.59
28027;BME280;15344;52.342;-1.290;2023-01-30T07:38:54;100923.19;;;7.94;80.66
28027;BME280;15344;52.342;-1.290;2023-01-30T07:41:20;100915.30;;;7.95;81.28
28027;BME280;15344;52.342;-1.290;2023-01-30T07:43:47;100908.88;;;8.61;76.36
28027;BME280;15344;52.342;-1.290;2023-01-30T07:46:10;100907.29;;;8.14;80.00
28027;BME280;15344;52.342;-1.290;2023-01-30T07:48:36;100910.70;;;7.73;79.79
28027;BME280;15344;52.342;-1.290;2023-01-30T07:51:06;100919.82;;;7.76;81.23
28027;BME280;15344;52.342;-1.290;2023-01-30T07:53:27;100924.48;;;7.90;80.89
28027;BME280;15344;52.342;-1.290;2023-01-30T07:55:52;100932.71;;;8.05;80.33
28027;BME280;15344;52.342;-1.290;2023-01-30T07:58:18;100940.57;;;8.14;80.53
28027;BME280;15344;52.342;-1.290;2023-01-30T08:00:44;100954.65;;;8.26;78.70
28027;BME280;15344;52.342;-1.290;2023-01-30T08:03:11;100956.85;;;7.84;79.90
28027;BME280;15344;52.342;-1.290;2023-01-30T08:05:34;100955.97;;;8.22;78.73
28027;BME280;15344;52.342;-1.290;2023-01-30T08:07:59;100954.30;;;7.16;82.06
28027;BME280;15344;52.342;-1.290;2023-01-30T08:10:25;100960.93;;;7.49;83.64
28027;BME280;15344;52.342;-1.290;2023-01-30T08:12:50;100967.67;;;8.19;82.16
28027;BME280;15344;52.342;-1.290;2023-01-30T08:15:16;100976.49;;;7.50;84.75
28027;BME280;15344;52.342;-1.290;2023-01-30T08:17:42;100982.50;;;7.28;85.61
28027;BME280;15344;52.342;-1.290;2023-01-30T08:20:08;100986.12;;;8.12;82.49
28027;BME280;15344;52.342;-1.290;2023-01-30T08:22:33;100985.31;;;8.03;81.88
28027;BME280;15344;52.342;-1.290;2023-01-30T08:24:58;100976.63;;;8.00;81.99
28027;BME280;15344;52.342;-1.290;2023-01-30T08:27:24;100978.70;;;8.25;80.63
28027;BME280;15344;52.342;-1.290;2023-01-30T08:29:49;100979.46;;;7.83;83.63
28027;BME280;15344;52.342;-1.290;2023-01-30T08:32:15;100973.66;;;7.95;82.75
28027;BME280;15344;52.342;-1.290;2023-01-30T08:34:40;100975.29;;;7.22;85.45
28027;BME280;15344;52.342;-1.290;2023-01-30T08:37:06;100984.28;;;7.47;85.57
28027;BME280;15344;52.342;-1.290;2023-01-30T08:39:31;100992.17;;;7.79;83.18
28027;BME280;15344;52.342;-1.290;2023-01-30T08:41:57;101005.16;;;8.09;81.95
28027;BME280;15344;52.342;-1.290;2023-01-30T08:44:22;101015.26;;;8.44;81.99
28027;BME280;15344;52.342;-1.290;2023-01-30T08:46:47;101015.04;;;8.22;81.91
28027;BME280;15344;52.342;-1.290;2023-01-30T08:49:14;101016.57;;;7.56;83.12
28027;BME280;15344;52.342;-1.290;2023-01-30T08:51:39;101012.11;;;8.33;81.30
28027;BME280;15344;52.342;-1.290;2023-01-30T08:54:05;101012.15;;;8.94;79.08
28027;BME280;15344;52.342;-1.290;2023-01-30T08:56:29;101025.74;;;7.93;82.36
28027;BME280;15344;52.342;-1.290;2023-01-30T08:58:55;101038.19;;;7.62;82.49
28027;BME280;15344;52.342;-1.290;2023-01-30T09:01:20;101039.42;;;8.69;79.98
28027;BME280;15344;52.342;-1.290;2023-01-30T09:03:46;101045.95;;;8.26;82.74
28027;BME280;15344;52.342;-1.290;2023-01-30T09:06:11;101052.34;;;7.70;84.79
28027;BME280;15344;52.342;-1.290;2023-01-30T09:08:37;101044.24;;;7.64;85.98
28027;BME280;15344;52.342;-1.290;2023-01-30T09:11:04;101041.14;;;7.25;86.41
28027;BME280;15344;52.342;-1.290;2023-01-30T09:13:28;101043.52;;;7.30;88.79
28027;BME280;15344;52.342;-1.290;2023-01-30T09:15:53;101048.95;;;7.49;89.30
28027;BME280;15344;52.342;-1.290;2023-01-30T09:18:19;101047.52;;;6.94;90.28
28027;BME280;15344;52.342;-1.290;2023-01-30T09:20:44;101041.56;;;7.92;86.28
28027;BME280;15344;52.342;-1.290;2023-01-30T09:23:10;101037.35;;;8.11;85.42
28027;BME280;15344;52.342;-1.290;2023-01-30T09:25:35;101039.10;;;8.61;82.19
28027;BME280;15344;52.342;-1.290;2023-01-30T09:28:00;101047.28;;;8.61;81.48
28027;BME280;15344;52.342;-1.290;2023-01-30T09:30:26;101064.15;;;8.60;82.19
28027;BME280;15344;52.342;-1.290;2023-01-30T09:32:52;101067.59;;;8.21;84.98
28027;BME280;15344;52.342;-1.290;2023-01-30T09:35:17;101067.73;;;8.68;83.17
28027;BME280;15344;52.342;-1.290;2023-01-30T09:37:46;101069.47;;;8.99;80.22
28027;BME280;15344;52.342;-1.290;2023-01-30T09:40:13;101069.81;;;9.18;78.45
28027;BME280;15344;52.342;-1.290;2023-01-30T09:42:49;101063.51;;;9.60;78.71
28027;BME280;15344;52.342;-1.290;2023-01-30T09:45:11;101063.67;;;8.59;82.53
28027;BME280;15344;52.342;-1.290;2023-01-30T09:47:33;101052.69;;;9.03;78.48
28027;BME280;15344;52.342;-1.290;2023-01-30T09:49:57;101055.39;;;8.54;82.52
28027;BME280;15344;52.342;-1.290;2023-01-30T09:52:23;101056.03;;;8.03;83.46
28027;BME280;15344;52.342;-1.290;2023-01-30T09:54:43;101057.46;;;8.42;83.12
28027;BME280;15344;52.342;-1.290;2023-01-30T09:57:12;101062.20;;;8.31;83.43
28027;BME280;15344;52.342;-1.290;2023-01-30T09:59:38;101071.12;;;7.47;86.00
28027;BME280;15344;52.342;-1.290;2023-01-30T10:02:05;;;;8.18;
28027;BME280;15344;52.342;-1.290;2023-01-30T10:04:28;101089.36;;;8.90;81.72
28027;BME280;15344;52.342;-1.290;2023-01-30T10:06:54;101094.09;;;8.62;83.71
28027;BME280;15344;52.342;-1.290;2023-01-30T10:09:20;101099.10;;;8.71;80.29
28027;BME280;15344;52.342;-1.290;2023-01-30T10:11:51;101096.77;;;9.22;80.31
28027;BME280;15344;52.342;-1.290;2023-01-30T10:14:16;101097.98;;;9.04;80.12
28027;BME280;15344;52.342;-1.290;2023-01-30T10:16:33;101107.12;;;8.99;81.14
28027;BME280;15344;52.342;-1.290;2023-01-30T10:19:07;101106.05;;;7.92;85.77
28027;BME280;15344;52.342;-1.290;2023-01-30T10:21:30;101109.07;;;9.52;80.41
28027;BME280;15344;52.342;-1.290;2023-01-30T10:24:01;101112.24;;;8.68;83.18
28027;BME280;15344;52.342;-1.290;2023-01-30T10:26:14;101113.55;;;7.91;85.43
28027;BME280;15344;52.342;-1.290;2023-01-30T10:28:41;101109.97;;;8.25;86.42
28027;BME280;15344;52.342;-1.290;2023-01-30T10:31:05;101116.11;;;7.82;87.60
28027;BME280;15344;52.342;-1.290;2023-01-30T10:33:31;101116.32;;;9.09;84.55
28027;BME280;15344;52.342;-1.290;2023-01-30T10:35:58;101121.55;;;8.14;85.71
28027;BME280;15344;52.342;-1.290;2023-01-30T10:38:20;101122.01;;;6.68;92.92
28027;BME280;15344;52.342;-1.290;2023-01-30T10:40:48;101121.54;;;7.80;91.26
28027;BME280;15344;52.342;-1.290;2023-01-30T10:43:16;101119.38;;;7.73;90.00
28027;BME280;15344;52.342;-1.290;2023-01-30T10:45:42;101113.93;;;7.93;90.55
28027;BME280;15344;52.342;-1.290;2023-01-30T10:48:11;101111.38;;;8.43;87.93
28027;BME280;15344;52.342;-1.290;2023-01-30T10:50:32;101104.89;;;8.68;87.76
28027;BME280;15344;52.342;-1.290;2023-01-30T10:52:57;101111.96;;;7.81;91.34
28027;BME280;15344;52.342;-1.290;2023-01-30T10:55:25;101114.60;;;7.93;89.64
28027;BME280;15344;52.342;-1.290;2023-01-30T10:57:50;101115.37;;;8.30;88.62
28027;BME280;15344;52.342;-1.290;2023-01-30T11:00:16;101119.28;;;8.14;89.46
28027;BME280;15344;52.342;-1.290;2023-01-30T11:02:39;101119.93;;;8.22;86.92
28027;BME280;15344;52.342;-1.290;2023-01-30T11:04:59;101119.24;;;8.50;86.99
28027;BME280;15344;52.342;-1.290;2023-01-30T11:07:23;101125.70;;;8.16;87.41
28027;BME280;15344;52.342;-1.290;2023-01-30T11:09:49;101141.06;;;7.65;90.75
28027;BME280;15344;52.342;-1.290;2023-01-30T11:12:15;101139.70;;;9.29;85.15
28027;BME280;15344;52.342;-1.290;2023-01-30T11:17:05;101149.46;;;8.25;87.35
28027;BME280;15344;52.342;-1.290;2023-01-30T11:19:32;101137.17;;;9.02;83.88
28027;BME280;15344;52.342;-1.290;2023-01-30T11:22:00;101139.00;;;9.02;84.37
28027;BME280;15344;52.342;-1.290;2023-01-30T11:24:23;101129.94;;;9.36;83.94
28027;BME280;15344;52.342;-1.290;2023-01-30T11:26:47;101122.81;;;8.97;85.97
28027;BME280;15344;52.342;-1.290;2023-01-30T11:29:24;101131.16;;;7.61;89.59
28027;BME280;15344;52.342;-1.290;2023-01-30T11:31:39;101127.63;;;8.14;90.59
28027;BME280;15344;52.342;-1.290;2023-01-30T11:34:10;101124.52;;;8.41;89.53
28027;BME280;15344;52.342;-1.290;2023-01-30T11:36:30;101119.50;;;8.55;88.56
28027;BME280;15344;52.342;-1.290;2023-01-30T11:38:57;101113.47;;;8.43;89.04
28027;BME280;15344;52.342;-1.290;2023-01-30T11:41:21;101115.36;;;8.10;89.98
28027;BME280;15344;52.342;-1.290;2023-01-30T11:43:45;101114.95;;;8.75;88.54
28027;BME280;15344;52.342;-1.290;2023-01-30T11:46:13;101116.05;;;8.79;88.14
28027;BME280;15344;52.342;-1.290;2023-01-30T11:48:42;101114.45;;;8.37;89.58
28027;BME280;15344;52.342;-1.290;2023-01-30T11:51:04;101116.60;;;8.87;87.82
28027;BME280;15344;52.342;-1.290;2023-01-30T11:53:30;101120.64;;;8.36;87.43
28027;BME280;15344;52.342;-1.290;2023-01-30T11:55:54;101129.33;;;8.45;88.48
28027;BME280;15344;52.342;-1.290;2023-01-30T11:58:17;101137.04;;;8.70;86.63
28027;BME280;15344;52.342;-1.290;2023-01-30T12:00:46;101144.46;;;8.31;88.45
28027;BME280;15344;52.342;-1.290;2023-01-30T12:03:11;101151.70;;;9.30;83.97
28027;BME280;15344;52.342;-1.290;2023-01-30T12:05:36;101156.58;;;8.72;84.76
28027;BME280;15344;52.342;-1.290;2023-01-30T12:10:29;101157.43;;;8.48;83.74
28027;BME280;15344;52.342;-1.290;2023-01-30T12:12:51;101156.81;;;8.71;83.17
28027;BME280;15344;52.342;-1.290;2023-01-30T12:15:22;101154.57;;;9.02;83.96
28027;BME280;15344;52.342;-1.290;2023-01-30T12:17:45;101151.90;;;8.89;83.27
28027;BME280;15344;52.342;-1.290;2023-01-30T12:20:16;101149.14;;;9.47;80.27
28027;BME280;15344;52.342;-1.290;2023-01-30T12:22:36;101150.92;;;8.62;83.00
28027;BME280;15344;52.342;-1.290;2023-01-30T12:24:58;101146.72;;;8.77;85.98
28027;BME280;15344;52.342;-1.290;2023-01-30T12:27:27;101142.76;;;8.17;86.74
28027;BME280;15344;52.342;-1.290;2023-01-30T12:29:56;101145.08;;;9.02;84.79
28027;BME280;15344;52.342;-1.290;2023-01-30T12:32:16;101150.60;;;8.35;86.24
28027;BME280;15344;52.342;-1.290;2023-01-30T12:34:38;101147.46;;;9.02;83.97
28027;BME280;15344;52.342;-1.290;2023-01-30T12:37:14;101152.14;;;9.47;81.69
28027;BME280;15344;52.342;-1.290;2023-01-30T12:39:39;101165.35;;;8.47;82.05
28027;BME280;15344;52.342;-1.290;2023-01-30T12:42:07;101174.25;;;8.70;83.93
28027;BME280;15344;52.342;-1.290;2023-01-30T12:44:30;101175.72;;;8.53;85.69
28027;BME280;15344;52.342;-1.290;2023-01-30T12:46:53;101183.34;;;9.68;78.82
28027;BME280;15344;52.342;-1.290;2023-01-30T12:51:50;101198.20;;;9.08;80.34
28027;BME280;15344;52.342;-1.290;2023-01-30T12:54:06;101201.89;;;9.01;81.58